Time;durP1;ratioP1;P1;durP2;ratioP2;P2;SDS_P1;SDS_P2;PMS_P1;PMS_P2;Temp;Humidity;BMP_temperature;BMP_pressure;BME280_temperature;BME280_humidity;BME280_pressure;Samples;Min_cycle;Max_cycle;Signal;HPM_P1;HPM_P2
2022/08/05 00:00:44;;;;;;;8.65;2.90;;;;;;;25.19;57.28;100635.59;2096486;28;20045;-76
2022/08/05 00:02:06;;;;;;;6.13;3.20;;;;;;;25.15;57.17;100627.69;2097283;28;20057;-77
2022/08/05 00:03:28;;;;;;;5.60;3.15;;;;;;;25.15;56.94;100620.44;2098628;28;20515;-76
2022/08/05 00:04:50;;;;;;;7.10;3.10;;;;;;;25.15;57.06;100624.97;2102656;28;20043;-76
2022/08/05 00:06:12;;;;;;;8.75;3.65;;;;;;;25.15;57.10;100623.16;2102924;28;20110;-76
2022/08/05 00:07:34;;;;;;;;;;;;;;;25.12;56.91;100622.44;2103649;28;20055;-76
2022/08/05 00:08:56;;;;;;;6.35;3.00;;;;;;;25.09;57.11;100628.84;2101491;28;19920;-76
2022/08/05 00:10:18;;;;;;;6.63;2.80;;;;;;;25.09;57.12;100623.44;2102381;28;20056;-76
2022/08/05 00:11:40;;;;;;;7.00;3.58;;;;;;;25.10;56.99;100621.63;2103184;28;20031;-77
2022/08/05 00:13:03;;;;;;;6.30;2.92;;;;;;;25.08;57.24;100618.97;2103149;28;20677;-76
2022/08/05 00:14:25;;;;;;;6.57;3.40;;;;;;;25.05;57.10;100619.13;2102993;28;20040;-76
2022/08/05 00:15:47;;;;;;;6.13;3.17;;;;;;;25.04;57.10;100621.91;2101762;28;20456;-76
2022/08/05 00:17:09;;;;;;;7.85;3.58;;;;;;;25.02;57.45;100616.56;2103070;28;20125;-76
2022/08/05 00:18:31;;;;;;;6.03;2.80;;;;;;;25.04;57.43;100622.78;2105343;28;20126;-77
2022/08/05 00:19:53;;;;;;;8.98;3.08;;;;;;;25.04;57.14;100620.09;2102421;28;20056;-77
2022/08/05 00:21:16;;;;;;;6.00;3.20;;;;;;;25.06;57.32;100620.91;2102801;28;20417;-76
2022/08/05 00:22:38;;;;;;;5.93;2.75;;;;;;;25.07;57.03;100619.06;2102566;28;20044;-77
2022/08/05 00:24:00;;;;;;;10.05;3.40;;;;;;;25.07;57.22;100610.97;2101548;28;20087;-77
2022/08/05 00:25:22;;;;;;;6.60;3.20;;;;;;;25.06;56.93;100610.09;2102606;28;20059;-76
2022/08/05 00:26:45;;;;;;;6.22;3.13;;;;;;;25.06;56.97;100606.50;2105461;28;20496;-77
2022/08/05 00:28:07;;;;;;;7.18;3.33;;;;;;;25.07;57.34;100613.66;2094635;28;20043;-76
2022/08/05 00:29:30;;;;;;;5.53;3.00;;;;;;;25.06;57.11;100607.38;2104668;28;20044;-76
2022/08/05 00:30:52;;;;;;;5.78;2.85;;;;;;;25.06;56.98;100607.38;2102670;28;20094;-77
2022/08/05 00:32:15;;;;;;;10.50;3.45;;;;;;;25.07;57.01;100609.16;2102901;28;20249;-77
2022/08/05 00:33:36;;;;;;;7.80;3.30;;;;;;;25.06;56.90;100618.19;2102520;28;20048;-76
2022/08/05 00:34:59;;;;;;;9.98;3.38;;;;;;;25.06;57.15;100609.22;2102744;28;20503;-77
2022/08/05 00:36:23;;;;;;;10.30;3.70;;;;;;;25.06;57.12;100620.91;2102704;28;20059;-77
2022/08/05 00:37:44;;;;;;;9.02;2.85;;;;;;;25.05;57.22;100621.84;2097361;28;20113;-77
2022/08/05 00:39:08;;;;;;;7.57;3.50;;;;;;;25.05;57.25;100611.03;2098146;28;20063;-77
2022/08/05 00:40:30;;;;;;;6.03;2.70;;;;;;;25.04;57.02;100621.91;2104211;28;20401;-77
2022/08/05 00:41:52;;;;;;;6.55;2.85;;;;;;;25.03;56.97;100612.91;2102589;28;20052;-76
2022/08/05 00:43:16;;;;;;;4.55;3.00;;;;;;;25.04;57.19;100609.28;2102376;28;20052;-77
2022/08/05 00:44:39;;;;;;;7.55;3.25;;;;;;;25.04;57.13;100616.50;2092939;28;20060;-76
2022/08/05 00:46:02;;;;;;;9.75;2.83;;;;;;;25.01;56.98;100618.38;2091212;28;20094;-76
2022/08/05 00:47:23;;;;;;;7.68;3.05;;;;;;;25.01;57.12;100612.97;2099992;28;20683;-77
2022/08/05 00:48:45;;;;;;;8.10;3.50;;;;;;;25.01;56.93;100612.97;2102443;28;20585;-77
2022/08/05 00:50:08;;;;;;;8.93;3.05;;;;;;;25.01;57.15;100610.28;2102288;28;20074;-77
2022/08/05 00:51:31;;;;;;;10.65;3.50;;;;;;;25.01;57.21;100609.41;2096753;28;20037;-76
2022/08/05 00:52:52;;;;;;;6.03;2.95;;;;;;;25.01;57.16;100607.59;2100151;28;20064;-77
2022/08/05 00:54:15;;;;;;;6.60;3.50;;;;;;;25.02;56.86;100605.75;2102578;28;20135;-77
2022/08/05 00:55:36;;;;;;;5.65;3.22;;;;;;;25.01;57.03;100601.31;2101540;28;20098;-77
2022/08/05 00:56:59;;;;;;;8.45;3.53;;;;;;;24.99;57.13;100598.69;2118988;27;20059;-77
2022/08/05 00:58:23;;;;;;;6.00;3.10;;;;;;;24.95;57.15;100599.75;2109204;28;20462;-77
2022/08/05 00:59:44;;;;;;;7.13;3.13;;;;;;;24.93;57.29;100606.22;2096694;28;20055;-77
2022/08/05 01:01:07;;;;;;;6.50;2.60;;;;;;;24.93;56.96;100606.22;2100236;28;20063;-77
2022/08/05 01:02:29;;;;;;;7.78;3.67;;;;;;;24.93;56.99;100600.81;2102413;28;20072;-77
2022/08/05 01:03:52;;;;;;;7.70;3.17;;;;;;;24.93;57.15;100600.81;2110616;28;20039;-77
2022/08/05 01:05:13;;;;;;;6.93;3.10;;;;;;;24.94;56.99;100605.25;2104742;28;20039;-77
2022/08/05 01:06:35;;;;;;;7.57;2.88;;;;;;;24.90;57.23;100601.81;2105160;28;20040;-77
2022/08/05 01:07:57;;;;;;;4.90;2.80;;;;;;;24.91;57.17;100608.09;2102559;28;20532;-77
2022/08/05 01:09:19;;;;;;;9.32;3.03;;;;;;;24.91;57.30;100606.25;2102592;28;20071;-77
2022/08/05 01:10:48;;;;;;;7.90;2.65;;;;;;;24.94;57.06;100611.50;2102040;28;20052;-77
2022/08/05 01:12:16;;;;;;;4.82;2.78;;;;;;;24.96;56.86;100603.34;2095349;28;20135;-77
2022/08/05 01:13:48;;;;;;;7.20;2.65;;;;;;;24.99;57.14;100597.81;2104302;28;20055;-77
2022/08/05 01:15:14;;;;;;;5.03;2.97;;;;;;;25.03;56.89;100604.81;2103725;28;20153;-77
2022/08/05 01:16:43;;;;;;;3.85;2.53;;;;;;;25.05;56.91;100608.34;2088432;28;20509;-77
2022/08/05 01:18:11;;;;;;;5.53;3.10;;;;;;;25.08;56.55;100601.88;2101306;28;20047;-76
2022/08/05 01:19:46;;;;;;;6.35;2.80;;;;;;;25.10;56.49;100606.28;2094971;28;20072;-76
2022/08/05 01:21:11;;;;;;;8.32;2.97;;;;;;;25.12;56.67;100600.81;2097988;28;20040;-77
2022/08/05 01:22:45;;;;;;;7.38;4.03;;;;;;;25.14;56.46;100601.63;2094718;28;20056;-77
2022/08/05 01:24:22;;;;;;;5.35;2.92;;;;;;;25.14;56.40;100605.19;2090280;28;20043;-77
2022/08/05 01:25:57;;;;;;;9.07;2.60;;;;;;;25.15;56.46;100600.66;2104015;28;20101;-77
2022/08/05 01:27:34;;;;;;;4.78;2.60;;;;;;;25.11;56.59;100596.34;2112396;28;20490;-77
2022/08/05 01:29:01;;;;;;;6.00;2.90;;;;;;;25.09;56.75;100598.25;2113526;28;20066;-77
2022/08/05 01:30:26;;;;;;;6.55;2.70;;;;;;;25.08;56.86;100594.66;2105056;28;20040;-77
2022/08/05 01:31:53;;;;;;;5.22;2.45;;;;;;;25.08;56.55;100593.78;2109812;28;20081;-77
2022/08/05 01:33:16;;;;;;;7.28;2.50;;;;;;;25.07;56.91;100592.94;2103621;28;20059;-77
2022/08/05 01:34:45;;;;;;;7.80;2.88;;;;;;;25.07;56.58;100595.63;2111108;28;20070;-76
2022/08/05 01:36:12;;;;;;;5.18;2.35;;;;;;;25.06;56.87;100596.59;2107885;28;20093;-76
2022/08/05 01:37:40;;;;;;;4.85;2.83;;;;;;;25.04;56.95;100593.06;2094540;28;20064;-77
2022/08/05 01:39:01;;;;;;;5.45;2.60;;;;;;;25.04;57.00;100592.19;2103550;28;20142;-76
2022/08/05 01:40:28;;;;;;;6.15;2.70;;;;;;;25.03;56.91;100585.91;2104993;28;20540;-76
2022/08/05 01:41:53;;;;;;;7.57;3.10;;;;;;;25.03;56.76;100594.00;2093529;28;20041;-76
2022/08/05 01:43:16;;;;;;;3.92;2.55;;;;;;;25.00;56.62;100588.78;2102473;28;20131;-76
2022/08/05 01:44:41;;;;;;;6.22;3.65;;;;;;;24.99;56.71;100589.72;2110980;28;20046;-76
2022/08/05 01:46:03;;;;;;;8.25;2.58;;;;;;;24.97;57.03;100583.50;2104491;28;20060;-76
2022/08/05 01:47:26;;;;;;;7.38;2.80;;;;;;;24.95;57.04;100579.97;2109884;28;20083;-76
2022/08/05 01:48:49;;;;;;;6.03;2.88;;;;;;;24.93;57.03;100577.38;2096699;28;20056;-76
2022/08/05 01:50:19;;;;;;;3.33;2.40;;;;;;;24.92;56.82;100588.25;2102298;28;20062;-76
2022/08/05 01:51:42;;;;;;;3.95;2.65;;;;;;;24.91;57.10;100579.25;2104798;28;20040;-76
2022/08/05 01:53:06;;;;;;;6.15;2.60;;;;;;;24.90;56.97;100588.31;2101438;28;20076;-76
2022/08/05 01:54:36;;;;;;;7.00;2.50;;;;;;;24.90;57.28;100587.41;2109712;28;20043;-76
2022/08/05 01:56:00;;;;;;;6.97;2.83;;;;;;;24.89;57.34;100574.81;2111034;28;20552;-77
2022/08/05 01:57:28;;;;;;;3.38;2.45;;;;;;;24.94;57.13;100579.09;2102536;28;20120;-76
2022/08/05 01:58:53;;;;;;;7.75;2.78;;;;;;;24.97;56.91;100581.66;2102621;28;20486;-76
2022/08/05 02:00:18;;;;;;;6.65;3.03;;;;;;;24.99;56.93;100581.59;2102181;28;20142;-76
2022/08/05 02:01:40;;;;;;;5.25;2.50;;;;;;;25.00;57.19;100586.06;2102662;28;20075;-76
2022/08/05 02:03:08;;;;;;;3.60;2.38;;;;;;;25.00;56.89;100584.25;2101270;28;20056;-76
2022/08/05 02:04:35;;;;;;;7.95;2.50;;;;;;;25.01;57.09;100585.97;2100400;28;20079;-76
2022/08/05 02:05:57;;;;;;;5.13;2.78;;;;;;;25.03;56.83;100594.00;2102664;28;20059;-76
2022/08/05 02:07:19;;;;;;;4.10;2.50;;;;;;;25.02;57.06;100589.53;2101326;28;20756;-76
2022/08/05 02:08:42;;;;;;;10.52;2.65;;;;;;;25.00;57.00;100577.97;2102140;28;20056;-76
2022/08/05 02:10:06;;;;;;;7.72;2.42;;;;;;;24.99;56.96;100582.47;2104520;28;20468;-76
2022/08/05 02:11:41;;;;;;;4.95;2.40;;;;;;;25.00;57.00;100586.06;2104742;28;20075;-76
2022/08/05 02:13:12;;;;;;;3.85;2.83;;;;;;;24.99;57.29;100581.59;2096454;28;20520;-76
2022/08/05 02:14:42;;;;;;;9.00;2.80;;;;;;;24.98;57.11;100574.44;2094699;28;20052;-76
2022/08/05 02:16:14;;;;;;;5.35;2.55;;;;;;;24.95;57.26;100580.84;2109724;28;20035;-76
2022/08/05 02:17:41;;;;;;;6.43;2.90;;;;;;;24.92;57.24;100580.13;2106457;28;20150;-76
2022/08/05 02:19:18;;;;;;;5.38;2.35;;;;;;;24.90;57.27;100577.50;2109487;28;20139;-77
2022/08/05 02:20:46;;;;;;;5.38;2.50;;;;;;;24.89;57.38;100570.34;2104035;28;20104;-77
2022/08/05 02:22:16;;;;;;;5.22;2.28;;;;;;;24.88;57.40;100573.06;2104230;28;20161;-77
2022/08/05 02:23:41;;;;;;;5.38;2.83;;;;;;;24.88;57.51;100571.25;2103073;28;20048;-76
2022/08/05 02:25:07;;;;;;;8.43;3.63;;;;;;;24.88;57.41;100573.06;2102800;28;20044;-77
2022/08/05 02:26:38;;;;;;;4.95;2.38;;;;;;;24.86;57.43;100573.16;2102255;28;20106;-77
2022/08/05 02:28:01;;;;;;;5.20;2.33;;;;;;;24.85;57.75;100571.41;2102232;28;20047;-77
2022/08/05 02:29:27;;;;;;;5.57;2.28;;;;;;;24.86;57.58;100577.69;2110901;28;20109;-77
2022/08/05 02:30:57;;;;;;;6.90;2.60;;;;;;;24.84;57.52;100569.66;2104141;28;20068;-77
2022/08/05 02:32:21;;;;;;;4.85;2.83;;;;;;;24.85;57.89;100570.53;2093782;28;20053;-76
2022/08/05 02:33:50;;;;;;;6.80;2.60;;;;;;;24.83;57.56;100577.81;2100153;28;20040;-77
2022/08/05 02:35:16;;;;;;;7.45;3.17;;;;;;;24.82;57.61;100568.84;2094201;28;20524;-77
2022/08/05 02:36:41;;;;;;;5.07;2.63;;;;;;;24.84;57.90;100566.94;2093325;28;20072;-77
2022/08/05 02:38:05;;;;;;;8.70;2.67;;;;;;;24.87;57.74;100568.66;2100136;28;20504;-77
2022/08/05 02:39:33;;;;;;;4.78;2.85;;;;;;;24.89;57.50;100553.22;2102386;28;20143;-77
2022/08/05 02:40:57;;;;;;;6.10;2.50;;;;;;;24.91;57.54;100559.47;2102188;28;20051;-76
2022/08/05 02:42:21;;;;;;;4.32;2.25;;;;;;;24.93;57.30;100563.00;2101782;28;20096;-76
2022/08/05 02:43:43;;;;;;;4.10;2.45;;;;;;;24.93;57.59;100565.69;2103504;28;20039;-76
2022/08/05 02:45:09;;;;;;;5.80;2.70;;;;;;;24.93;57.37;100566.56;2099949;28;20123;-76
2022/08/05 02:46:32;;;;;;;5.80;2.30;;;;;;;24.91;57.25;100567.56;2102442;28;20110;-76
2022/08/05 02:47:56;;;;;;;5.78;3.03;;;;;;;24.91;57.33;100554.06;2102352;28;20104;-76
2022/08/05 02:49:20;;;;;;;5.60;2.53;;;;;;;24.89;57.65;100564.03;2104424;28;20553;-77
2022/08/05 02:50:45;;;;;;;7.78;2.50;;;;;;;24.88;57.51;100556.88;2096323;28;20128;-77
2022/08/05 02:52:10;;;;;;;5.07;2.47;;;;;;;24.86;57.45;100564.19;2104063;28;20044;-76
2022/08/05 02:53:33;;;;;;;4.90;2.30;;;;;;;24.83;57.48;100558.91;2105718;28;20040;-77
2022/08/05 02:54:56;;;;;;;7.38;3.70;;;;;;;24.81;57.86;100561.69;2087876;28;20140;-77
2022/08/05 02:56:18;;;;;;;5.35;2.42;;;;;;;24.81;57.65;100558.13;2085338;28;20045;-76
2022/08/05 02:57:42;;;;;;;5.38;2.40;;;;;;;24.82;57.85;100565.25;2098751;28;20051;-77
2022/08/05 02:59:06;;;;;;;6.75;2.50;;;;;;;24.79;57.64;100560.00;2110048;28;20036;-77
2022/08/05 03:00:29;;;;;;;5.78;2.47;;;;;;;24.77;58.00;100549.28;2104700;28;20040;-76
2022/08/05 03:01:57;;;;;;;6.97;2.83;;;;;;;24.77;58.08;100554.69;2098628;28;20140;-77
2022/08/05 03:03:22;;;;;;;5.22;2.30;;;;;;;24.76;58.00;100557.44;2102241;28;20051;-77
2022/08/05 03:04:46;;;;;;;9.23;2.88;;;;;;;24.75;58.12;100558.38;2101410;28;20139;-77
2022/08/05 03:06:10;;;;;;;5.43;3.47;;;;;;;24.75;57.86;100561.06;2101999;28;20055;-76
2022/08/05 03:07:34;;;;;;;3.90;2.33;;;;;;;24.75;58.14;100555.69;2102015;28;20044;-76
2022/08/05 03:08:56;;;;;;;3.60;1.83;;;;;;;24.74;58.05;100562.06;2105451;28;20731;-76
2022/08/05 03:10:19;;;;;;;8.43;3.10;;;;;;;24.73;57.88;100561.19;2094729;28;20060;-77
2022/08/05 03:11:43;;;;;;;4.55;2.20;;;;;;;24.74;58.25;100565.63;2101638;28;20071;-76
2022/08/05 03:13:12;;;;;;;10.57;2.80;;;;;;;24.77;58.03;100556.50;2097774;28;20102;-76
2022/08/05 03:14:34;;;;;;;8.55;2.65;;;;;;;24.77;58.05;100564.59;2105485;28;20131;-77
2022/08/05 03:15:57;;;;;;;6.53;2.70;;;;;;;24.77;58.10;100557.38;2086880;28;20071;-77
2022/08/05 03:17:18;;;;;;;5.03;2.72;;;;;;;24.80;58.14;100567.16;2113273;27;20402;-77
2022/08/05 03:18:43;;;;;;;5.72;2.72;;;;;;;24.81;58.12;100564.38;2104520;28;20036;-76
2022/08/05 03:20:06;;;;;;;9.35;3.00;;;;;;;24.80;58.35;100559.06;2102674;28;20052;-77
2022/08/05 03:21:28;;;;;;;7.63;2.75;;;;;;;24.80;58.23;100559.94;2095414;28;20036;-77
2022/08/05 03:22:50;;;;;;;7.57;2.88;;;;;;;24.80;58.21;100559.06;2096651;28;20036;-76
2022/08/05 03:24:12;;;;;;;6.45;2.40;;;;;;;24.81;58.55;100556.28;2103066;28;20052;-77
2022/08/05 03:25:35;;;;;;;;;;;;;;;24.83;58.54;100558.91;2102171;28;20047;-76
2022/08/05 03:26:59;;;;;;;6.43;2.67;;;;;;;24.89;58.42;100558.63;2110878;28;19919;-76
2022/08/05 03:28:22;;;;;;;7.15;3.65;;;;;;;24.91;58.08;100557.66;2105842;28;20047;-76
2022/08/05 03:29:45;;;;;;;6.55;3.17;;;;;;;24.92;58.14;100551.31;2095088;28;20045;-76
2022/08/05 03:31:07;;;;;;;6.53;3.10;;;;;;;24.92;58.25;100558.53;2108713;28;20063;-77
2022/08/05 03:32:30;;;;;;;8.15;2.90;;;;;;;24.93;58.28;100554.88;2096698;28;20044;-76
2022/08/05 03:33:54;;;;;;;5.88;2.38;;;;;;;24.96;58.44;100557.41;2101177;28;20052;-76
2022/08/05 03:35:15;;;;;;;7.47;2.53;;;;;;;24.95;58.39;100563.75;2089206;28;20052;-76
2022/08/05 03:36:38;;;;;;;4.10;2.05;;;;;;;24.95;58.41;100563.75;2100669;28;20040;-77
2022/08/05 03:38:00;;;;;;;5.88;2.97;;;;;;;24.94;58.40;100565.59;2101566;28;20093;-76
2022/08/05 03:39:22;;;;;;;6.38;2.20;;;;;;;24.94;58.43;100562.88;2103285;28;20048;-77
2022/08/05 03:40:46;;;;;;;7.75;2.58;;;;;;;24.97;58.71;100567.28;2113605;28;20064;-77
2022/08/05 03:42:07;;;;;;;10.20;2.70;;;;;;;25.00;58.49;100564.47;2095459;28;20048;-77
2022/08/05 03:43:29;;;;;;;5.10;2.45;;;;;;;25.02;58.81;100557.13;2110862;28;20047;-77
2022/08/05 03:44:52;;;;;;;7.82;2.72;;;;;;;25.09;58.64;100558.59;2096931;28;20068;-76
2022/08/05 03:46:15;;;;;;;4.93;2.15;;;;;;;25.17;58.50;100558.22;2104104;28;20127;-77
2022/08/05 03:47:36;;;;;;;6.50;2.88;;;;;;;25.24;58.63;100554.28;2102910;28;20079;-76
2022/08/05 03:49:00;;;;;;;9.75;3.10;;;;;;;25.30;58.29;100560.28;2103239;28;20044;-76
2022/08/05 03:50:22;;;;;;;5.22;2.25;;;;;;;25.37;58.45;100555.44;2103680;28;20128;-77
2022/08/05 03:51:53;;;;;;;8.40;2.35;;;;;;;25.45;58.37;100558.66;2103302;28;20085;-77
2022/08/05 03:53:22;;;;;;;6.78;2.10;;;;;;;25.53;58.32;100563.69;2101827;28;20438;-76
2022/08/05 03:54:51;;;;;;;8.88;2.95;;;;;;;25.61;58.15;100556.09;2104947;28;20062;-77
2022/08/05 03:56:22;;;;;;;6.28;2.72;;;;;;;25.69;57.77;100556.59;2112281;28;20043;-76
2022/08/05 03:57:47;;;;;;;5.50;2.65;;;;;;;25.77;57.60;100563.38;2114023;27;20416;-77
2022/08/05 03:59:17;;;;;;;8.98;2.38;;;;;;;25.85;57.75;100560.28;2105557;28;20143;-76
2022/08/05 04:00:42;;;;;;;7.03;2.20;;;;;;;25.94;57.64;100551.69;2101577;28;20492;-76
2022/08/05 04:02:06;;;;;;;6.30;2.03;;;;;;;26.03;57.44;100556.63;2103503;28;20052;-77
2022/08/05 04:03:30;;;;;;;5.25;2.42;;;;;;;26.12;57.12;100564.25;2103199;28;20082;-76
2022/08/05 04:04:56;;;;;;;4.20;2.30;;;;;;;26.22;57.05;100564.66;2102900;28;20067;-76
2022/08/05 04:06:19;;;;;;;5.95;2.33;;;;;;;26.31;56.92;100563.34;2094722;28;20064;-76
2022/08/05 04:07:43;;;;;;;7.15;2.30;;;;;;;26.41;56.83;100560.06;2092715;28;20051;-76
2022/08/05 04:09:06;;;;;;;5.45;2.10;;;;;;;26.51;56.47;100557.78;2101818;28;20043;-76
2022/08/05 04:10:30;;;;;;;6.70;2.47;;;;;;;26.59;56.15;100560.91;2102589;28;20036;-77
2022/08/05 04:11:53;;;;;;;4.85;2.30;;;;;;;26.71;55.93;100562.09;2102470;28;20104;-76
2022/08/05 04:13:17;;;;;;;5.50;2.22;;;;;;;26.81;55.86;100556.09;2102909;28;20044;-77
2022/08/05 04:14:41;;;;;;;5.28;1.80;;;;;;;26.91;55.46;100557.34;2097489;28;20463;-76
2022/08/05 04:16:03;;;;;;;4.82;2.00;;;;;;;27.02;55.37;100566.75;2103398;28;20098;-76
2022/08/05 04:17:25;;;;;;;6.72;2.22;;;;;;;27.11;55.19;100553.53;2097340;28;20068;-76
2022/08/05 04:18:48;;;;;;;7.45;2.15;;;;;;;27.22;55.04;100555.66;2099109;28;20052;-75
2022/08/05 04:20:20;;;;;;;7.07;3.00;;;;;;;27.34;54.68;100546.81;2102979;28;20500;-75
2022/08/05 04:21:42;;;;;;;5.03;2.22;;;;;;;27.43;54.41;100559.00;2104226;28;20143;-76
2022/08/05 04:23:05;;;;;;;5.45;2.10;;;;;;;27.50;54.16;100552.25;2110944;28;20064;-75
2022/08/05 04:24:28;;;;;;;8.05;2.30;;;;;;;27.60;53.92;100550.78;2104095;28;20052;-76
2022/08/05 04:25:50;;;;;;;5.00;2.97;;;;;;;27.68;53.77;100554.81;2105417;28;20040;-76
2022/08/05 04:27:12;;;;;;;5.00;2.63;;;;;;;27.80;53.43;100555.03;2102395;28;20592;-75
2022/08/05 04:28:34;;;;;;;5.38;1.95;;;;;;;27.89;53.28;100557.22;2102715;28;20067;-76
2022/08/05 04:29:57;;;;;;;4.93;2.15;;;;;;;27.98;52.88;100554.81;2105444;28;20113;-76
2022/08/05 04:31:19;;;;;;;4.13;2.33;;;;;;;28.07;52.57;100558.81;2101948;28;20123;-75
2022/08/05 04:32:41;;;;;;;3.72;2.00;;;;;;;28.13;52.43;100555.75;2102923;28;20135;-75
2022/08/05 04:34:03;;;;;;;9.52;2.33;;;;;;;28.21;52.39;100555.31;2105587;28;20138;-77
2022/08/05 04:35:26;;;;;;;5.18;2.00;;;;;;;28.33;52.19;100552.72;2102657;28;20056;-76
2022/08/05 04:36:49;;;;;;;3.08;1.80;;;;;;;28.46;51.94;100551.00;2103097;28;20052;-76
2022/08/05 04:38:11;;;;;;;3.35;1.73;;;;;;;28.58;51.75;100545.75;2103779;28;20141;-75
2022/08/05 04:39:33;;;;;;;4.53;1.80;;;;;;;28.68;51.28;100546.94;2105469;28;20112;-76
2022/08/05 04:40:56;;;;;;;3.60;2.03;;;;;;;28.77;51.16;100544.53;2089827;28;20941;-76
2022/08/05 04:42:18;;;;;;;4.18;1.90;;;;;;;28.91;50.93;100549.97;2105374;28;20182;-76
2022/08/05 04:43:41;;;;;;;3.03;1.92;;;;;;;29.02;50.46;100552.00;2103942;28;20073;-76
2022/08/05 04:45:04;;;;;;;4.63;2.30;;;;;;;29.12;50.36;100539.56;2102894;28;20123;-76
2022/08/05 04:46:25;;;;;;;5.95;2.17;;;;;;;29.20;49.91;100536.34;2105268;28;20441;-75
2022/08/05 04:47:48;;;;;;;3.10;2.17;;;;;;;29.28;49.70;100537.59;2105239;28;20044;-76
2022/08/05 04:49:09;;;;;;;8.65;2.10;;;;;;;29.42;49.77;100541.28;2102702;28;20476;-76
2022/08/05 04:50:39;;;;;;;4.00;1.70;;;;;;;29.58;49.63;100539.28;2105208;28;20043;-76
2022/08/05 04:52:01;;;;;;;4.03;2.30;;;;;;;29.76;49.06;100537.19;2095032;28;20539;-76
2022/08/05 04:53:23;;;;;;;2.40;1.58;;;;;;;29.95;48.74;100543.16;2108528;28;20083;-75
2022/08/05 04:54:45;;;;;;;4.60;1.90;;;;;;;30.11;48.00;100538.41;2098487;28;20048;-75
2022/08/05 04:56:08;;;;;;;4.13;1.75;;;;;;;30.24;47.70;100538.44;2090893;28;20088;-76
2022/08/05 04:57:31;;;;;;;4.75;2.13;;;;;;;30.41;47.77;100536.25;2091672;28;20143;-75
2022/08/05 04:58:53;;;;;;;5.18;2.08;;;;;;;30.65;47.33;100541.88;2099180;28;20488;-76
2022/08/05 05:00:15;;;;;;;4.55;2.10;;;;;;;30.88;46.61;100535.63;2101936;28;20549;-75
2022/08/05 05:01:38;;;;;;;4.03;1.73;;;;;;;31.10;46.13;100545.00;2093083;28;20048;-76
2022/08/05 05:02:59;;;;;;;4.80;1.73;;;;;;;31.25;45.48;100539.28;2099498;28;20151;-76
2022/08/05 05:04:21;;;;;;;4.82;1.92;;;;;;;31.38;44.98;100543.81;2101972;28;20040;-75
2022/08/05 05:05:46;;;;;;;4.20;2.13;;;;;;;31.50;44.52;100532.00;2087381;28;20056;-76
2022/08/05 05:07:08;;;;;;;3.60;2.25;;;;;;;31.61;44.47;100534.81;2099854;28;20055;-76
2022/08/05 05:08:30;;;;;;;5.82;2.10;;;;;;;31.73;44.06;100533.91;2099135;28;20543;-75
2022/08/05 05:09:52;;;;;;;5.20;1.90;;;;;;;31.90;43.59;100540.81;2107938;28;20511;-75
2022/08/05 05:11:14;;;;;;;6.13;2.17;;;;;;;32.00;43.03;100539.09;2102438;28;20052;-76
2022/08/05 05:12:35;;;;;;;5.72;1.85;;;;;;;32.12;42.63;100537.28;2105313;28;20494;-75
2022/08/05 05:13:58;;;;;;;4.15;2.00;;;;;;;32.25;42.80;100543.56;2101468;28;20044;-76
2022/08/05 05:15:20;;;;;;;3.22;1.60;;;;;;;32.47;42.37;100549.09;2104836;28;20072;-75
2022/08/05 05:16:43;;;;;;;6.18;1.83;;;;;;;32.64;41.83;100545.88;2113005;27;20109;-75
2022/08/05 05:18:06;;;;;;;3.22;2.00;;;;;;;32.79;41.49;100552.03;2104539;28;20126;-76
2022/08/05 05:19:28;;;;;;;3.65;1.80;;;;;;;32.99;40.96;100554.03;2105528;28;20052;-75
2022/08/05 05:20:52;;;;;;;4.72;2.00;;;;;;;33.15;40.50;100554.50;2102631;28;20044;-76
2022/08/05 05:22:14;;;;;;;6.13;1.88;;;;;;;33.27;40.51;100555.41;2103218;28;20067;-75
2022/08/05 05:23:36;;;;;;;4.63;1.95;;;;;;;33.44;39.95;100559.47;2109534;28;20039;-75
2022/08/05 05:24:58;;;;;;;7.53;2.42;;;;;;;33.58;39.91;100554.59;2102554;28;20084;-75
2022/08/05 05:26:21;;;;;;;4.22;1.73;;;;;;;33.66;39.53;100551.22;2110670;28;20048;-75
2022/08/05 05:27:43;;;;;;;4.85;1.70;;;;;;;33.78;39.24;100552.94;2104113;28;20048;-76
2022/08/05 05:29:05;;;;;;;6.20;1.90;;;;;;;33.92;38.89;100557.25;2117496;27;20545;-75
2022/08/05 05:30:28;;;;;;;5.82;1.70;;;;;;;34.03;38.90;100548.97;2105321;28;20044;-76
2022/08/05 05:31:52;;;;;;;4.40;2.00;;;;;;;34.15;38.61;100553.41;2101764;28;20086;-75
2022/08/05 05:33:14;;;;;;;5.50;1.85;;;;;;;34.24;38.20;100557.28;2099764;28;20509;-76
2022/08/05 05:34:36;;;;;;;5.63;1.90;;;;;;;34.31;38.40;100555.72;2091492;28;20147;-75
2022/08/05 05:36:00;;;;;;;5.20;1.85;;;;;;;34.44;38.22;100567.38;2091173;28;20060;-76
2022/08/05 05:37:22;;;;;;;5.30;2.05;;;;;;;34.48;37.85;100557.00;2109721;27;20050;-76
2022/08/05 05:38:45;;;;;;;4.97;1.90;;;;;;;34.48;37.58;100560.59;2106083;28;20056;-76
2022/08/05 05:40:09;;;;;;;7.57;1.98;;;;;;;34.57;37.47;100556.19;2104863;28;20100;-75
2022/08/05 05:41:32;;;;;;;3.58;1.90;;;;;;;34.68;37.30;100565.22;2102789;28;20116;-75
2022/08/05 05:42:54;;;;;;;5.93;1.88;;;;;;;34.75;36.93;100555.47;2110081;28;20062;-75
2022/08/05 05:44:17;;;;;;;5.22;1.88;;;;;;;34.72;36.99;100561.22;2108013;28;20046;-75
2022/08/05 05:45:38;;;;;;;4.30;1.67;;;;;;;34.77;37.08;100564.44;2097803;28;20544;-76
2022/08/05 05:47:01;;;;;;;6.45;1.80;;;;;;;34.85;36.68;100560.16;2112624;27;20151;-76
2022/08/05 05:48:24;;;;;;;2.70;1.58;;;;;;;34.88;36.46;100563.47;2099914;28;20147;-75
2022/08/05 05:49:46;;;;;;;5.18;1.95;;;;;;;34.92;36.55;100572.31;2094276;28;20102;-76
2022/08/05 05:51:10;;;;;;;4.70;1.92;;;;;;;34.92;36.36;100564.09;2104625;28;20138;-76
2022/08/05 05:52:32;;;;;;;5.35;1.98;;;;;;;34.88;36.43;100571.72;2110130;28;20537;-75
2022/08/05 05:53:56;;;;;;;4.13;2.20;;;;;;;34.93;36.43;100568.53;2104213;28;20056;-75
2022/08/05 05:55:19;;;;;;;5.88;1.90;;;;;;;34.97;36.29;100570.91;2102814;28;20056;-75
2022/08/05 05:56:41;;;;;;;5.13;1.98;;;;;;;34.89;36.47;100578.94;2101659;28;20036;-76
2022/08/05 05:58:05;;;;;;;6.63;1.92;;;;;;;35.08;36.34;100576.28;2094348;28;20517;-75
2022/08/05 05:59:27;;;;;;;3.50;1.60;;;;;;;35.35;36.01;100574.81;2107780;28;20082;-76
2022/08/05 06:00:50;;;;;;;4.82;1.60;;;;;;;35.46;35.55;100578.31;2101762;28;20044;-75
2022/08/05 06:02:12;;;;;;;4.75;1.92;;;;;;;35.35;35.62;100575.69;2102540;28;20082;-76
2022/08/05 06:03:37;;;;;;;7.03;1.88;;;;;;;35.32;35.59;100577.84;2102903;28;20097;-75
2022/08/05 06:05:00;;;;;;;2.42;1.60;;;;;;;35.47;35.39;100577.31;2102924;28;20035;-75
2022/08/05 06:06:24;;;;;;;3.53;1.92;;;;;;;35.56;35.02;100570.13;2101525;28;20051;-75
2022/08/05 06:07:48;;;;;;;5.82;1.60;;;;;;;35.59;35.08;100578.06;2102558;28;20072;-75
2022/08/05 06:09:10;;;;;;;4.50;1.70;;;;;;;35.74;34.89;100573.94;2099663;28;20044;-75
2022/08/05 06:10:32;;;;;;;;;;;;;;;35.76;34.76;100582.06;2093173;28;20044;-75
2022/08/05 06:11:54;;;;;;;5.82;1.67;;;;;;;35.96;34.84;100581.06;2107756;28;20010;-76
2022/08/05 06:13:16;;;;;;;3.95;2.00;;;;;;;36.07;34.61;100586.41;2098950;28;20148;-75
2022/08/05 06:14:41;;;;;;;5.90;1.75;;;;;;;36.27;34.49;100584.56;2103576;28;20058;-76
2022/08/05 06:16:03;;;;;;;3.72;1.67;;;;;;;36.42;34.36;100574.00;2098605;28;20080;-76
2022/08/05 06:17:26;;;;;;;3.90;1.95;;;;;;;36.55;34.07;100572.66;2104177;28;20040;-75
2022/08/05 06:18:48;;;;;;;3.95;1.65;;;;;;;36.63;33.79;100578.28;2101869;28;20094;-76
2022/08/05 06:20:12;;;;;;;3.97;1.77;;;;;;;36.61;33.69;100580.34;2101471;28;20036;-76
2022/08/05 06:21:37;;;;;;;6.68;1.60;;;;;;;36.54;33.38;100575.56;2106309;28;20045;-76
2022/08/05 06:23:00;;;;;;;12.13;2.33;;;;;;;36.44;33.60;100574.69;2100026;28;20061;-76
2022/08/05 06:24:22;;;;;;;4.05;1.73;;;;;;;36.41;33.32;100566.75;2099083;28;20070;-76
2022/08/05 06:25:44;;;;;;;4.45;1.90;;;;;;;36.37;33.61;100574.41;2098122;28;20059;-76
2022/08/05 06:27:07;;;;;;;5.05;1.88;;;;;;;36.45;33.50;100566.28;2108624;28;20035;-76
2022/08/05 06:28:29;;;;;;;3.50;1.73;;;;;;;36.44;33.50;100570.06;2110989;28;20100;-76
2022/08/05 06:29:51;;;;;;;5.65;1.95;;;;;;;36.41;33.42;100570.38;2103671;28;20059;-76
2022/08/05 06:31:14;;;;;;;5.85;2.08;;;;;;;36.37;33.52;100574.41;2110177;28;20050;-76